createdAt,value
2019-05-03T00:02:29.535Z,72.56
2019-05-03T00:05:32.460Z,72.73
2019-05-03T00:08:09.157Z,72.83
2019-05-03T00:10:42.368Z,72.68
2019-05-03T00:13:12.966Z,72.42
2019-05-03T00:16:02.727Z,72.60
2019-05-03T00:18:33.895Z,72.31
2019-05-03T00:21:06.144Z,71.81
2019-05-03T00:23:37.080Z,72.37
2019-05-03T00:26:08.035Z,72.60
2019-05-03T00:28:38.951Z,72.13
2019-05-03T00:31:10.024Z,72.16
2019-05-03T00:33:42.981Z,72.24
2019-05-03T00:36:23.289Z,72.51
2019-05-03T00:38:57.420Z,73.07
2019-05-03T00:41:28.696Z,73.11
2019-05-03T00:44:02.085Z,72.33
2019-05-03T00:46:32.790Z,72.61
2019-05-03T00:49:03.997Z,72.92
2019-05-03T00:51:34.931Z,72.67
2019-05-03T00:54:06.219Z,72.44
2019-05-03T00:56:37.197Z,72.00
2019-05-03T00:59:08.205Z,71.88
2019-05-03T01:01:39.187Z,71.53
2019-05-03T01:04:11.850Z,71.88
2019-05-03T01:06:42.713Z,72.16
2019-05-03T01:09:19.511Z,72.82
2019-05-03T01:11:52.357Z,72.86
2019-05-03T01:14:23.870Z,72.89
2019-05-03T01:16:54.806Z,73.07
2019-05-03T01:19:25.779Z,73.32
2019-05-03T01:21:56.706Z,73.31
2019-05-03T01:24:27.860Z,72.96
2019-05-03T01:26:59.244Z,72.62
2019-05-03T01:29:32.235Z,72.46
2019-05-03T01:32:03.539Z,72.25
2019-05-03T01:34:34.409Z,73.34
2019-05-03T01:37:06.508Z,73.21
2019-05-03T01:39:37.500Z,73.05
2019-05-03T01:42:08.531Z,73.47
2019-05-03T01:44:39.522Z,73.50
2019-05-03T01:47:14.524Z,73.24
2019-05-03T01:50:07.416Z,73.69
2019-05-03T01:52:41.995Z,73.75
2019-05-03T01:55:15.789Z,73.26
2019-05-03T01:57:45.657Z,72.71
2019-05-03T02:00:22.481Z,73.30
2019-05-03T02:03:01.667Z,73.02
2019-05-03T02:05:48.795Z,73.40
2019-05-03T02:08:19.658Z,73.08
2019-05-03T02:10:51.771Z,73.55
2019-05-03T02:13:23.059Z,73.33
2019-05-03T02:15:54.201Z,73.07
2019-05-03T02:18:25.236Z,73.77
2019-05-03T02:20:56.207Z,73.29
2019-05-03T02:23:27.289Z,72.99
2019-05-03T02:25:59.250Z,73.25
2019-05-03T02:28:32.546Z,73.31
2019-05-03T02:31:03.784Z,72.65
2019-05-03T02:33:35.351Z,72.94
2019-05-03T02:36:06.441Z,73.10
2019-05-03T02:38:37.576Z,72.70
2019-05-03T02:41:08.591Z,72.63
2019-05-03T02:43:45.204Z,72.79
2019-05-03T02:46:36.057Z,72.30
2019-05-03T02:49:17.056Z,72.83
2019-05-03T02:51:48.155Z,73.07
2019-05-03T02:54:19.182Z,73.39
2019-05-03T02:56:50.131Z,73.17
2019-05-03T02:59:21.156Z,73.23
2019-05-03T03:01:52.215Z,73.41
2019-05-03T03:04:25.836Z,73.20
2019-05-03T03:06:56.040Z,72.89
2019-05-03T03:09:27.085Z,73.40
2019-05-03T03:11:59.698Z,72.61
2019-05-03T03:14:33.054Z,73.68
2019-05-03T03:17:06.584Z,73.23
2019-05-03T03:19:38.207Z,73.80
2019-05-03T03:22:10.832Z,73.42
2019-05-03T03:24:45.951Z,73.47
2019-05-03T03:27:20.315Z,73.16
2019-05-03T03:29:59.079Z,73.06
2019-05-03T03:32:39.195Z,73.67
2019-05-03T03:35:21.816Z,73.57
2019-05-03T03:37:51.885Z,72.84
2019-05-03T03:40:25.251Z,73.19
2019-05-03T03:42:55.802Z,73.08
2019-05-03T03:45:26.786Z,73.46
2019-05-03T03:47:57.626Z,72.81
2019-05-03T03:50:28.532Z,73.37
2019-05-03T03:52:59.743Z,72.77
2019-05-03T03:55:32.065Z,73.89
2019-05-03T03:58:06.718Z,73.96
2019-05-03T04:00:37.535Z,73.35
2019-05-03T04:03:11.819Z,73.60
2019-05-03T04:05:43.159Z,73.70
2019-05-03T04:08:16.371Z,73.07
2019-05-03T04:10:47.482Z,73.35
2019-05-03T04:13:20.295Z,73.61
2019-05-03T04:16:08.555Z,73.06
2019-05-03T04:18:49.952Z,73.72
2019-05-03T04:21:21.469Z,73.40
2019-05-03T04:23:55.494Z,73.39
2019-05-03T04:26:29.528Z,73.40
2019-05-03T04:28:58.065Z,73.30
2019-05-03T04:31:29.079Z,73.26
2019-05-03T04:34:00.161Z,73.11
2019-05-03T04:36:31.202Z,73.17
2019-05-03T04:39:02.216Z,72.88
2019-05-03T04:41:35.540Z,72.95
2019-05-03T04:44:07.017Z,72.61
2019-05-03T04:46:40.416Z,73.11
2019-05-03T04:49:11.413Z,72.97
2019-05-03T04:51:46.878Z,72.78
2019-05-03T04:54:26.362Z,72.90
2019-05-03T04:56:57.491Z,72.58
2019-05-03T04:59:28.501Z,72.24
2019-05-03T05:01:59.502Z,72.54
2019-05-03T05:04:30.351Z,72.50
2019-05-03T05:07:05.938Z,72.53
2019-05-03T05:09:36.243Z,72.32
2019-05-03T05:12:07.378Z,72.52
2019-05-03T05:14:38.645Z,72.29
2019-05-03T05:17:12.535Z,72.43
2019-05-03T05:19:49.311Z,71.94
2019-05-03T05:22:24.705Z,72.11
2019-05-03T05:24:57.181Z,71.73
2019-05-03T05:27:48.328Z,71.74
2019-05-03T05:30:10.181Z,71.23
2019-05-03T05:32:41.691Z,71.22
2019-05-03T05:35:14.369Z,71.17
2019-05-03T05:37:45.304Z,71.19
2019-05-03T05:40:17.248Z,70.98
2019-05-03T05:42:48.129Z,70.46
2019-05-03T05:45:19.064Z,68.46
2019-05-03T05:48:05.218Z,68.78
2019-05-03T05:50:42.087Z,69.38
2019-05-03T05:53:15.148Z,68.20
2019-05-03T05:55:59.132Z,68.18
2019-05-03T05:58:45.051Z,68.26
2019-05-03T06:01:21.162Z,67.55
2019-05-03T06:03:52.075Z,67.48
2019-05-03T06:06:51.080Z,67.32
2019-05-03T06:09:59.026Z,66.59
2019-05-03T06:12:39.703Z,67.30
2019-05-03T06:15:28.398Z,67.26
2019-05-03T06:18:01.396Z,65.90
2019-05-03T06:20:46.934Z,66.12
2019-05-03T06:23:35.898Z,65.76
2019-05-03T06:26:25.749Z,65.92
2019-05-03T06:28:57.648Z,66.05
2019-05-03T06:31:44.636Z,66.03
2019-05-03T06:34:15.775Z,65.28
2019-05-03T06:36:51.124Z,65.23
2019-05-03T06:39:21.024Z,64.00
2019-05-03T06:41:52.106Z,63.62
2019-05-03T06:44:24.776Z,63.79
2019-05-03T06:46:55.689Z,64.37
2019-05-03T06:49:26.673Z,62.34
2019-05-03T06:51:57.609Z,60.63
2019-05-03T06:54:29.980Z,60.84
2019-05-03T06:57:05.741Z,59.68
2019-05-03T06:59:40.216Z,59.08
2019-05-03T07:02:48.542Z,59.59
2019-05-03T07:05:41.622Z,58.80
2019-05-03T07:08:31.689Z,58.54
2019-05-03T07:11:05.109Z,59.35
2019-05-03T07:13:35.901Z,59.49
2019-05-03T07:16:06.958Z,56.25
2019-05-03T07:18:37.912Z,56.64
2019-05-03T07:21:08.864Z,55.74
2019-05-03T07:23:39.873Z,54.74
2019-05-03T07:26:10.946Z,56.60
2019-05-03T07:28:46.985Z,52.77
2019-05-03T07:31:15.248Z,53.99
2019-05-03T07:33:46.777Z,54.75
2019-05-03T07:36:17.760Z,53.70
2019-05-03T07:38:48.766Z,54.25
2019-05-03T07:41:19.680Z,54.59
2019-05-03T07:43:50.687Z,55.63
2019-05-03T07:46:21.659Z,55.45
2019-05-03T07:48:54.656Z,55.00
2019-05-03T07:51:25.366Z,55.88
2019-05-03T07:53:56.396Z,55.63
2019-05-03T07:56:37.894Z,54.41
2019-05-03T07:59:09.209Z,55.15
2019-05-03T08:01:45.511Z,54.94
2019-05-03T08:04:16.406Z,53.76
2019-05-03T08:06:47.735Z,53.93
2019-05-03T08:09:19.103Z,51.64
2019-05-03T08:11:50.111Z,54.60
2019-05-03T08:14:21.340Z,50.41
2019-05-03T08:16:54.616Z,48.71
2019-05-03T08:19:27.036Z,48.78
2019-05-03T08:21:57.360Z,47.66
2019-05-03T08:24:28.551Z,48.70
2019-05-03T08:26:59.598Z,48.99
2019-05-03T08:29:30.642Z,46.94
2019-05-03T08:32:29.377Z,46.96
2019-05-03T08:35:28.720Z,46.41
2019-05-03T08:38:01.050Z,47.69
2019-05-03T08:40:39.552Z,48.04
2019-05-03T08:43:10.548Z,47.56
2019-05-03T08:45:41.423Z,46.95
2019-05-03T08:48:14.798Z,47.00
2019-05-03T08:50:45.222Z,46.88
2019-05-03T08:53:16.377Z,46.21
2019-05-03T08:55:47.650Z,45.23
2019-05-03T08:58:18.917Z,46.59
2019-05-03T09:00:50.359Z,46.13
2019-05-03T09:03:21.326Z,48.27
2019-05-03T09:05:56.238Z,46.15
2019-05-03T09:08:25.669Z,44.10
2019-05-03T09:11:05.050Z,44.62
2019-05-03T09:14:10.198Z,42.66
2019-05-03T09:16:41.282Z,42.47
2019-05-03T09:19:12.193Z,43.52
2019-05-03T09:21:45.262Z,41.73
2019-05-03T09:24:15.768Z,43.20
2019-05-03T09:26:46.770Z,42.65
2019-05-03T09:29:18.385Z,42.59
2019-05-03T09:31:50.163Z,42.63
2019-05-03T09:34:25.717Z,43.25
2019-05-03T09:36:56.797Z,44.10
2019-05-03T09:39:27.684Z,43.47
2019-05-03T09:41:58.549Z,43.66
2019-05-03T09:44:29.560Z,45.82
2019-05-03T09:47:00.752Z,45.67
2019-05-03T09:49:31.703Z,45.25
2019-05-03T09:52:08.160Z,45.88
2019-05-03T09:54:42.375Z,47.04
2019-05-03T09:57:15.128Z,45.42
2019-05-03T09:59:56.606Z,45.10
2019-05-03T10:02:18.634Z,45.45
2019-05-03T10:04:50.197Z,44.34
2019-05-03T10:07:21.450Z,44.25
2019-05-03T10:09:55.045Z,44.36
2019-05-03T10:12:25.794Z,44.74
2019-05-03T10:14:56.815Z,45.17
2019-05-03T10:17:55.447Z,44.74
2019-05-03T10:20:27.962Z,43.35
2019-05-03T10:23:06.365Z,43.31
2019-05-03T10:25:40.209Z,44.18
2019-05-03T10:28:10.774Z,40.78
2019-05-03T10:30:42.435Z,40.79
2019-05-03T10:33:18.116Z,41.50
2019-05-03T10:35:49.250Z,42.83
2019-05-03T10:38:20.114Z,41.06
2019-05-03T10:40:51.562Z,40.91
2019-05-03T10:43:24.791Z,41.14
2019-05-03T10:45:57.567Z,41.02
2019-05-03T10:48:28.577Z,42.64
2019-05-03T10:50:59.591Z,40.81
2019-05-03T10:53:35.711Z,40.47
2019-05-03T10:56:23.380Z,40.01
2019-05-03T10:59:01.102Z,38.92
2019-05-03T11:01:58.964Z,40.99
2019-05-03T11:04:30.987Z,39.53
2019-05-03T11:07:01.993Z,40.32
2019-05-03T11:09:47.878Z,41.37
2019-05-03T11:12:06.431Z,38.02
2019-05-03T11:14:37.335Z,39.81
2019-05-03T11:17:08.360Z,38.94
2019-05-03T11:19:39.375Z,38.80
2019-05-03T11:22:10.343Z,36.35
2019-05-03T11:24:41.481Z,38.90
2019-05-03T11:27:17.802Z,40.54
2019-05-03T11:29:48.815Z,38.42
2019-05-03T11:32:38.193Z,39.43
2019-05-03T11:35:19.839Z,39.97
2019-05-03T11:38:21.841Z,38.34
2019-05-03T11:40:52.787Z,38.29
2019-05-03T11:43:24.722Z,38.46
2019-05-03T11:45:56.333Z,37.65
2019-05-03T11:48:27.767Z,39.74
2019-05-03T11:50:58.848Z,42.05
2019-05-03T11:53:29.862Z,38.88
2019-05-03T11:56:00.895Z,40.75
2019-05-03T11:58:31.737Z,37.76
2019-05-03T12:01:25.396Z,37.54
2019-05-03T12:03:59.177Z,37.89
2019-05-03T12:06:30.009Z,38.83
2019-05-03T12:09:01.539Z,36.95
2019-05-03T12:11:34.161Z,37.52
2019-05-03T12:14:15.196Z,38.38
2019-05-03T12:17:14.599Z,39.67
2019-05-03T12:19:31.175Z,37.78
2019-05-03T12:22:00.814Z,39.16
2019-05-03T12:24:32.734Z,38.32
2019-05-03T12:27:04.751Z,38.94
2019-05-03T12:29:35.748Z,37.74
2019-05-03T12:32:06.743Z,39.71
2019-05-03T12:34:37.913Z,40.26
2019-05-03T12:37:08.879Z,39.13
2019-05-03T12:39:40.508Z,39.09
2019-05-03T12:42:11.482Z,39.37
2019-05-03T12:44:42.440Z,39.44
2019-05-03T12:47:14.581Z,39.90
2019-05-03T12:49:45.875Z,39.70
2019-05-03T12:52:17.524Z,41.21
2019-05-03T12:54:49.008Z,39.87
2019-05-03T12:57:55.887Z,40.58
2019-05-03T13:01:01.415Z,40.42
2019-05-03T13:03:35.487Z,39.74
2019-05-03T13:06:07.413Z,40.88
2019-05-03T13:08:41.646Z,39.58
2019-05-03T13:11:12.749Z,40.45
2019-05-03T13:13:45.236Z,41.25
2019-05-03T13:16:19.491Z,41.09
2019-05-03T13:18:50.503Z,42.16
2019-05-03T13:21:22.612Z,40.95
2019-05-03T13:23:54.853Z,42.13
2019-05-03T13:26:26.183Z,40.73
2019-05-03T13:28:59.592Z,40.76
2019-05-03T13:31:31.642Z,41.80
2019-05-03T13:34:02.615Z,41.00
2019-05-03T13:36:34.944Z,40.31
2019-05-03T13:39:13.241Z,40.81
2019-05-03T13:41:40.415Z,41.88
2019-05-03T13:44:11.436Z,40.37
2019-05-03T13:46:44.575Z,41.13
2019-05-03T13:49:15.929Z,40.55
2019-05-03T13:51:47.315Z,40.20
2019-05-03T13:54:18.250Z,41.04
2019-05-03T13:56:49.254Z,39.16
2019-05-03T13:59:22.193Z,40.35
2019-05-03T14:01:54.576Z,39.07
2019-05-03T14:04:25.684Z,39.86
2019-05-03T14:06:56.671Z,39.67
2019-05-03T14:09:27.688Z,39.32
2019-05-03T14:12:08.585Z,40.01
2019-05-03T14:14:55.885Z,39.77
2019-05-03T14:17:28.811Z,39.97
2019-05-03T14:20:11.511Z,40.56
2019-05-03T14:22:44.010Z,42.09
2019-05-03T14:25:15.249Z,41.94
2019-05-03T14:27:47.778Z,40.71
2019-05-03T14:30:18.684Z,41.80
2019-05-03T14:32:49.619Z,41.49
2019-05-03T14:35:20.720Z,41.33
2019-05-03T14:37:54.928Z,41.43
2019-05-03T14:40:27.330Z,41.98
2019-05-03T14:42:58.573Z,40.66
2019-05-03T14:45:34.825Z,41.97
2019-05-03T14:48:07.976Z,39.58
2019-05-03T14:50:38.943Z,42.73
2019-05-03T14:53:11.972Z,41.50
2019-05-03T14:55:51.342Z,41.03
2019-05-03T14:58:52.638Z,40.25
2019-05-03T15:01:30.615Z,40.84
2019-05-03T15:04:01.743Z,41.21
2019-05-03T15:06:35.391Z,41.21
2019-05-03T15:09:07.802Z,41.31
2019-05-03T15:11:38.774Z,41.25
2019-05-03T15:14:10.047Z,41.36
2019-05-03T15:16:41.094Z,40.71
2019-05-03T15:19:15.021Z,40.95
2019-05-03T15:21:54.769Z,40.95
2019-05-03T15:24:26.975Z,40.48
2019-05-03T15:26:57.941Z,41.16
2019-05-03T15:33:16.723Z,41.24
2019-05-03T15:35:48.507Z,41.43
2019-05-03T15:38:19.490Z,41.97
2019-05-03T15:40:50.519Z,42.13
2019-05-03T15:43:45.393Z,42.22
2019-05-03T15:46:37.760Z,41.70
2019-05-03T15:49:08.908Z,43.44
2019-05-03T15:51:39.917Z,42.14
2019-05-03T15:54:10.951Z,42.57
2019-05-03T15:56:41.968Z,42.75
2019-05-03T15:59:14.858Z,43.28
2019-05-03T16:01:46.069Z,41.71
2019-05-03T16:04:17.205Z,42.57
2019-05-03T16:06:49.381Z,42.96
2019-05-03T16:09:20.454Z,44.23
2019-05-03T16:11:51.513Z,43.65
2019-05-03T16:14:24.244Z,43.82
2019-05-03T16:16:57.883Z,43.67
2019-05-03T16:19:28.868Z,43.66
2019-05-03T16:21:59.908Z,43.95
2019-05-03T16:24:30.970Z,43.53
2019-05-03T16:27:26.901Z,44.15
2019-05-03T16:29:57.869Z,43.78
2019-05-03T16:32:28.883Z,44.81
2019-05-03T16:34:59.926Z,44.85
2019-05-03T16:37:30.848Z,44.98
2019-05-03T16:40:01.807Z,45.92
2019-05-03T16:42:32.860Z,45.38
2019-05-03T16:45:05.607Z,44.72
2019-05-03T16:47:36.973Z,45.16
2019-05-03T16:50:08.424Z,45.18
2019-05-03T16:52:42.216Z,45.62
2019-05-03T16:55:14.704Z,44.84
2019-05-03T16:57:45.838Z,45.77
2019-05-03T17:00:17.925Z,45.47
2019-05-03T17:02:49.282Z,46.23
2019-05-03T17:05:46.194Z,45.60
2019-05-03T17:08:29.692Z,46.70
2019-05-03T17:11:02.777Z,46.33
2019-05-03T17:13:34.624Z,46.58
2019-05-03T17:16:06.844Z,46.73
2019-05-03T17:18:38.544Z,46.62
2019-05-03T17:21:10.060Z,47.51
2019-05-03T17:23:42.375Z,48.14
2019-05-03T17:26:14.976Z,47.60
2019-05-03T17:28:46.227Z,47.73
2019-05-03T17:31:17.333Z,48.31
2019-05-03T17:33:53.536Z,48.09
2019-05-03T17:36:21.158Z,48.12
2019-05-03T17:38:55.077Z,48.20
2019-05-03T17:41:45.354Z,48.63
2019-05-03T17:44:21.001Z,48.53
2019-05-03T17:46:52.056Z,48.36
2019-05-03T17:49:23.173Z,48.19
2019-05-03T17:52:14.265Z,48.74
2019-05-03T17:55:04.994Z,47.96
2019-05-03T17:57:44.703Z,48.10
2019-05-03T18:00:44.441Z,47.95
2019-05-03T18:03:16.756Z,48.35
2019-05-03T18:05:54.713Z,48.23
2019-05-03T18:08:55.116Z,48.69
2019-05-03T18:11:30.548Z,48.57
2019-05-03T18:14:01.580Z,49.06
2019-05-03T18:16:32.342Z,48.90
2019-05-03T18:19:05.131Z,48.65
2019-05-03T18:21:35.880Z,49.39
2019-05-03T18:24:07.066Z,49.23
2019-05-03T18:26:37.939Z,49.46
2019-05-03T18:29:08.900Z,49.54
2019-05-03T18:31:40.054Z,49.63
2019-05-03T18:34:19.206Z,49.73
2019-05-03T18:36:45.548Z,49.41
2019-05-03T18:39:16.587Z,50.26
2019-05-03T18:41:47.553Z,50.46
2019-05-03T18:44:31.307Z,50.77
2019-05-03T18:47:05.571Z,50.70
2019-05-03T18:49:36.778Z,50.29
2019-05-03T18:52:08.210Z,50.30
2019-05-03T18:54:39.249Z,50.97
2019-05-03T18:57:10.230Z,51.02
2019-05-03T18:59:41.521Z,51.41
2019-05-03T19:02:14.792Z,51.40
2019-05-03T19:04:51.007Z,51.49
2019-05-03T19:07:59.051Z,51.68
2019-05-03T19:10:35.856Z,52.06
2019-05-03T19:13:14.965Z,51.73
2019-05-03T19:15:48.024Z,52.41
2019-05-03T19:18:26.721Z,52.17
2019-05-03T19:20:57.612Z,52.02
2019-05-03T19:23:28.544Z,52.28
2019-05-03T19:26:00.895Z,51.95
2019-05-03T19:28:31.883Z,52.84
2019-05-03T19:31:05.258Z,53.04
2019-05-03T19:33:37.327Z,53.86
2019-05-03T19:36:08.620Z,53.69
2019-05-03T19:38:39.626Z,53.46
2019-05-03T19:41:10.739Z,53.79
2019-05-03T19:43:41.963Z,53.87
2019-05-03T19:46:13.337Z,53.76
2019-05-03T19:48:45.917Z,53.51
2019-05-03T19:51:18.314Z,53.46
2019-05-03T19:53:55.066Z,54.08
2019-05-03T19:56:27.810Z,54.30
2019-05-03T19:59:04.629Z,55.11
2019-05-03T20:02:07.269Z,55.68
2019-05-03T20:05:00.801Z,55.55
2019-05-03T20:07:37.643Z,55.46
2019-05-03T20:10:09.150Z,55.85
2019-05-03T20:15:28.774Z,57.05
2019-05-03T20:18:00.401Z,57.31
2019-05-03T20:20:31.613Z,57.19
2019-05-03T20:23:02.682Z,57.03
2019-05-03T20:25:35.144Z,58.22
2019-05-03T20:28:06.731Z,59.15
2019-05-03T20:30:37.744Z,59.08
2019-05-03T20:33:08.655Z,60.02
2019-05-03T20:35:39.667Z,59.81
2019-05-03T20:38:10.726Z,60.58
2019-05-03T20:40:41.784Z,60.34
2019-05-03T20:43:35.149Z,60.58
2019-05-03T20:46:16.687Z,60.93
2019-05-03T20:48:50.452Z,61.41
2019-05-03T20:51:21.419Z,62.81
2019-05-03T20:53:52.429Z,63.05
2019-05-03T20:56:24.649Z,61.84
2019-05-03T20:58:56.198Z,63.73
2019-05-03T21:01:39.355Z,62.44
2019-05-03T21:04:10.404Z,63.22
2019-05-03T21:06:41.257Z,63.52
2019-05-03T21:09:12.270Z,64.30
2019-05-03T21:11:44.824Z,63.27
2019-05-03T21:14:15.975Z,62.33
2019-05-03T21:17:08.749Z,64.27
2019-05-03T21:20:14.797Z,64.33
2019-05-03T21:22:49.249Z,65.14
2019-05-03T21:25:26.392Z,64.44
2019-05-03T21:27:57.332Z,65.84
2019-05-03T21:30:28.547Z,65.09
2019-05-03T21:32:59.545Z,64.46
2019-05-03T21:35:40.911Z,64.88
2019-05-03T21:38:03.687Z,64.99
2019-05-03T21:40:34.876Z,65.42
2019-05-03T21:43:06.293Z,66.26
2019-05-03T21:45:49.160Z,64.61
2019-05-03T21:48:27.217Z,65.15
2019-05-03T21:50:58.206Z,64.14
2019-05-03T21:53:29.062Z,65.05
2019-05-03T21:56:00.052Z,66.67
2019-05-03T21:58:30.942Z,64.85
2019-05-03T22:01:05.763Z,66.11
2019-05-03T22:03:38.394Z,65.51
2019-05-03T22:06:09.410Z,66.17
2019-05-03T22:08:40.556Z,68.58
2019-05-03T22:11:11.523Z,67.49
2019-05-03T22:13:45.330Z,69.08
2019-05-03T22:16:25.606Z,67.34
2019-05-03T22:18:56.621Z,67.87
2019-05-03T22:21:55.770Z,66.95
2019-05-03T22:24:42.142Z,68.61
2019-05-03T22:27:17.305Z,69.35
2019-05-03T22:29:48.322Z,68.30
2019-05-03T22:32:19.212Z,68.49
2019-05-03T22:34:50.253Z,67.87
2019-05-03T22:37:24.847Z,68.88
2019-05-03T22:39:55.261Z,69.19
2019-05-03T22:42:26.296Z,69.35
2019-05-03T22:44:57.162Z,69.45
2019-05-03T22:47:28.215Z,69.89
2019-05-03T22:49:59.206Z,70.92
2019-05-03T22:52:30.160Z,69.16
2019-05-03T22:55:01.098Z,68.73
2019-05-03T22:57:32.135Z,70.45
2019-05-03T23:00:06.098Z,69.85
2019-05-03T23:02:35.972Z,69.74
2019-05-03T23:05:07.249Z,68.80
2019-05-03T23:07:38.137Z,69.16
2019-05-03T23:10:09.115Z,69.46
2019-05-03T23:12:40.132Z,70.37
2019-05-03T23:15:12.373Z,69.55
2019-05-03T23:17:45.040Z,68.81
2019-05-03T23:20:28.492Z,68.10
2019-05-03T23:22:59.265Z,70.03
2019-05-03T23:25:30.790Z,70.28
2019-05-03T23:28:01.965Z,69.65
2019-05-03T23:30:32.958Z,68.32
2019-05-03T23:35:55.086Z,70.19
2019-05-03T23:38:28.969Z,70.91
2019-05-03T23:40:59.893Z,72.14
2019-05-03T23:43:30.966Z,73.50
2019-05-03T23:46:01.982Z,72.78
2019-05-03T23:48:34.933Z,72.73
2019-05-03T23:51:08.217Z,73.52
2019-05-03T23:53:39.259Z,73.11
2019-05-03T23:56:16.593Z,71.65
2019-05-03T23:58:47.575Z,72.66
